Willard, Colorado
Current Conditions -  °F | °C
As of 10:10 PM on Monday 22 Dec 2014 (Local Time) from KSTK Reporting Station
Broken Clouds Broken Clouds  
Wind Chill: -6°   Ceiling: 12000
Heat Index:   Visibility: 10mi
Dew Point: -3°   Wind: 25mph
Humidity: 75%   Direction: 320°NW
Pressure: 29.76"   Gusts: 33mph
Location:  40.5426°N, 103.449°W
Report Text: KSTK 230510Z AUTO 32022G29KT 10SM BKN120 01/M03 A2976 RMK AO2
Loading
Personal Weather Stations






























Interactive Weather Map New forecast layout! Learn more

10-Day Weather Forecast

Advertisements
Track Severe Weather on mobile